Effective Sunday, March 17, 2024, the National Weather Service National Data Buoy Center will discontinue its Dial-A-Buoy Interactive Voice Response system. For more information, see Service Change Notice 24-06 (PDF).

Station FRXM3 - 8447412 - Fall River Visibility, MA Image indicating link to RSS feed of recent meteorological observations for station FRXM3


Conditions at FRXM3 as of
(6:18 am EST)
1118 GMT on 02/26/2024:
     

Click on the graph icon in the table below to see a time series plot of the last five days of that observation.

5-day plot - Air Temperature Air Temperature (ATMP): 38.5 °F
5-day plot - Dew Point Dew Point (DEWP): 31.6 °F
5-day plot - Visibility Visibility (VIS): 5.9 nmi
NOS Water Level Observation Network Water Level
Previous observations
TIME
(EST)
5-day plot - Wind Direction
WDIR
 
5-day plot - Wind Speed
WSPD
kts
5-day plot - Wind Gust
GST
kts
5-day plot - Wave Height
WVHT
ft
5-day plot - Dominant Wave Period
DPD
sec
5-day plot - Average Wave Period
APD
sec
5-day plot - Mean Wave Direction
MWD
 
5-day plot - Atmospheric Pressure
PRES
in
5-day plot - Pressure Tendency
PTDY
in
5-day plot - Air Temperature
ATMP
°F
5-day plot - Water Temperature
WTMP
°F
5-day plot - Dew Point
DEWP
°F
5-day plot - Salinity
SAL
psu
5-day plot - Visibility
VIS
nmi
5-day plot - Tide (above MLLW)
TIDE
ft
2024-02-26 06:12 am--------- 38.5- 31.5- 5.9-
2024-02-26 06:06 am--------- 38.5- 31.5- 5.9-
2024-02-26 06:00 am--------- 38.3- 31.5- 5.9-
2024-02-26 05:54 am--------- 38.3- 31.5- 5.9-
2024-02-26 05:48 am--------- 38.1- 31.3- 5.9-
2024-02-26 05:42 am--------- 37.9- 31.1- 5.9-
2024-02-26 05:36 am--------- 37.9- 31.1- 5.9-
2024-02-26 05:30 am--------- 37.8- 30.7- 5.9-
2024-02-26 05:24 am--------- 37.9- 30.9- 5.9-
2024-02-26 05:18 am--------- 37.9- 30.9- 5.9-
2024-02-26 05:12 am--------- 37.9- 30.7- 5.9-
2024-02-26 05:06 am--------- 37.9- 30.7- 5.9-
2024-02-26 05:00 am--------- 37.9- 30.7- 5.9-
2024-02-26 04:54 am--------- 37.9- 30.9- 5.9-
2024-02-26 04:48 am--------- 37.9- 30.9- 5.9-
2024-02-26 04:42 am--------- 37.8- 30.9- 5.9-
2024-02-26 04:36 am--------- 37.8- 31.1- 5.9-
2024-02-26 04:30 am--------- 37.8- 31.1- 5.9-
2024-02-26 04:24 am--------- 37.6- 31.3- 5.9-
2024-02-26 04:18 am--------- 37.6- 31.3- 5.9-
2024-02-26 04:12 am--------- 37.4- 31.3- 5.9-
2024-02-26 04:06 am--------- 37.4- 31.1- 5.9-
2024-02-26 04:00 am--------- 37.4- 31.1- 5.9-
2024-02-26 03:54 am--------- 37.2- 31.1- 5.9-
2024-02-26 03:48 am--------- 37.2- 31.1- 5.9-
2024-02-26 03:42 am--------- 37.0- 30.9- 5.9-
2024-02-26 03:36 am--------- 36.7- 30.7- 5.9-
2024-02-26 03:30 am--------- 36.5- 30.6- 5.9-
2024-02-26 03:24 am--------- 36.3- 30.6- 5.9-
2024-02-26 03:18 am--------- 36.3- 30.6- 5.9-
2024-02-26 03:12 am--------- 36.1- 30.6- 5.9-
2024-02-26 03:06 am--------- 36.0- 30.2- 5.9-
2024-02-26 03:00 am--------- 36.0- 30.2- 5.9-
2024-02-26 02:54 am--------- 35.4- 29.7- 5.9-
2024-02-26 02:48 am--------- 35.2- 29.3- 5.9-
2024-02-26 02:42 am--------- 35.4- 29.5- 5.9-
2024-02-26 02:36 am--------- 35.2- 29.3- 5.9-
2024-02-26 02:30 am--------- 35.1- 28.9- 5.9-
2024-02-26 02:24 am--------- 34.9- 28.8- 5.9-
2024-02-26 02:18 am--------- 34.7- 28.4- 5.9-
2024-02-26 02:12 am--------- 34.5- 28.0- 5.9-
2024-02-26 02:06 am--------- 34.7- 28.2- 5.9-
2024-02-26 02:00 am--------- 34.7- 28.0- 5.9-
2024-02-26 01:54 am--------- 34.7- 27.9- 5.9-
2024-02-26 01:48 am--------- 34.5- 27.5- 5.9-
2024-02-26 01:42 am--------- 34.7- 27.7- 5.9-
2024-02-26 01:36 am--------- 34.7- 27.5- 5.9-
2024-02-26 01:30 am--------- 34.7- 27.3- 5.9-
2024-02-26 01:24 am--------- 34.3- 26.8- 5.9-
2024-02-26 01:18 am--------- 34.9- 27.3- 5.9-
2024-02-26 01:12 am--------- 34.2- 26.4- 5.9-
2024-02-26 01:06 am--------- 34.2- 26.2- 5.9-
2024-02-26 01:00 am--------- 34.2- 26.2- 5.9-
2024-02-26 12:54 am--------- 34.0- 25.9- 5.9-
2024-02-26 12:48 am--------- 33.8- 25.7- 5.9-
2024-02-26 12:42 am--------- 33.8- 25.5- 5.9-
2024-02-26 12:36 am--------- 33.8- 25.3- 5.9-
2024-02-26 12:30 am--------- 33.6- 25.2- 5.9-
2024-02-26 12:24 am--------- 33.6- 25.2- 5.9-
2024-02-26 12:18 am--------- 33.8- 25.5- 5.9-
2024-02-26 12:12 am--------- 33.8- 25.7- 5.9-
2024-02-26 12:06 am--------- 34.2- 26.2- 5.9-
2024-02-26 12:00 am--------- 33.8- 25.7- 5.9-
2024-02-25 11:54 pm--------- 33.3- 24.8- 5.9-
2024-02-25 11:48 pm--------- 33.1- 24.6- 5.9-
2024-02-25 11:42 pm--------- 33.4- 24.6- 5.9-
2024-02-25 11:36 pm--------- 33.1- 24.3- 5.9-
2024-02-25 11:30 pm--------- 33.1- 24.3- 5.9-
2024-02-25 11:24 pm--------- 32.9- 23.9- 5.9-
2024-02-25 11:18 pm--------- 32.9- 23.5- 5.9-
2024-02-25 11:12 pm--------- 32.9- 23.4- 5.9-
2024-02-25 11:06 pm--------- 32.7- 23.2- 5.9-
2024-02-25 11:00 pm--------- 32.7- 23.2- 5.9-
2024-02-25 10:54 pm--------- 32.5- 23.2- 5.9-
2024-02-25 10:48 pm--------- 32.4- 23.0- 5.9-
2024-02-25 10:42 pm--------- 32.4- 23.2- 5.9-
2024-02-25 10:36 pm--------- 32.4- 23.2- 5.9-
2024-02-25 10:30 pm--------- 32.5- 23.5- 5.9-
2024-02-25 10:24 pm--------- 32.2- 23.2- 5.9-
2024-02-25 10:18 pm--------- 32.2- 23.4- 5.9-
2024-02-25 10:12 pm--------- 32.2- 23.4- 5.9-
2024-02-25 10:06 pm--------- 32.0- 23.2- 5.9-
2024-02-25 10:00 pm--------- 32.0- 23.2- 5.9-
2024-02-25 09:54 pm--------- 32.2- 23.4- 5.9-
2024-02-25 09:48 pm--------- 32.0- 23.2- 5.9-
2024-02-25 09:42 pm--------- 32.2- 23.2- 5.9-
2024-02-25 09:36 pm--------- 32.2- 23.2- 5.9-
2024-02-25 09:30 pm--------- 32.2- 23.2- 5.9-
2024-02-25 09:24 pm--------- 32.0- 22.8- 5.9-
2024-02-25 09:18 pm--------- 32.0- 22.8- 5.9-
2024-02-25 09:12 pm--------- 31.6- 22.5- 5.9-
2024-02-25 09:06 pm--------- 31.6- 22.3- 5.9-
2024-02-25 09:00 pm--------- 31.5- 22.3- 5.9-
2024-02-25 08:54 pm--------- 31.5- 22.3- 5.9-
2024-02-25 08:48 pm--------- 31.3- 22.1- 5.9-
2024-02-25 08:42 pm--------- 31.3- 22.1- 5.9-
2024-02-25 08:36 pm--------- 31.3- 22.1- 5.9-
2024-02-25 08:30 pm--------- 31.3--- 5.9-
2024-02-25 08:24 pm--------- 31.1--- 5.9-
2024-02-25 08:18 pm--------- 31.1- 21.2- 5.9-
2024-02-25 08:12 pm--------- 30.9- 20.8- 5.9-
2024-02-25 08:06 pm--------- 30.7- 20.5- 5.9-
2024-02-25 07:48 pm--------- 30.6- 19.4- 5.9-
2024-02-25 07:42 pm--------- 30.6- 19.4- 5.9-
2024-02-25 07:36 pm--------- 30.6- 19.0- 5.9-
2024-02-25 07:30 pm--------- 30.6- 19.2- 5.9-
2024-02-25 07:24 pm--------- 30.6- 19.0- 5.9-
2024-02-25 06:48 pm--------- 30.6- 19.0- 5.9-
2024-02-25 06:42 pm--------- 30.4- 18.7- 5.9-
2024-02-25 06:36 pm--------- 30.4- 18.5- 5.9-
2024-02-25 06:30 pm--------- 30.6- 18.3- 5.9-
2024-02-25 06:24 pm--------- 30.6- 18.1- 5.9-
2024-02-25 06:00 pm--------- 30.6- 15.8- 5.9-
2024-02-25 05:54 pm--------- 30.6- 15.4- 5.9-
2024-02-25 05:48 pm--------- 30.6- 14.9- 5.9-
2024-02-25 05:42 pm--------- 30.7- 14.5- 5.9-
2024-02-25 05:36 pm--------- 30.7- 14.2- 5.9-
2024-02-25 05:30 pm--------- 30.7- 13.8- 5.9-
2024-02-25 05:24 pm--------- 30.9- 13.3- 5.9-
2024-02-25 05:18 pm--------- 30.9- 12.9- 5.9-
2024-02-25 05:12 pm--------- 31.1- 12.9- 5.9-
2024-02-25 05:06 pm--------- 31.3- 13.5- 5.9-
2024-02-25 05:00 pm--------- 31.5- 14.0- 5.9-
2024-02-25 04:54 pm--------- 31.5- 13.6- 5.9-
2024-02-25 04:18 pm--------- 32.2- 12.9- 5.9-
2024-02-25 04:12 pm--------- 32.5- 13.3- 5.9-
2024-02-25 04:06 pm--------- 32.0- 12.7- 5.9-
2024-02-25 03:48 pm--------- 32.2- 12.0- 5.9-
2024-02-25 03:42 pm--------- 32.9- 12.0- 5.9-
2024-02-25 03:36 pm--------- 33.1- 10.9- 5.9-
2024-02-25 03:30 pm--------- 34.2- 11.5- 5.9-
2024-02-25 03:24 pm--------- 33.6- 10.9- 5.9-
2024-02-25 02:48 pm--------- 33.6- 11.3- 5.9-
2024-02-25 02:42 pm--------- 32.9- 8.1- 5.9-
2024-02-25 02:36 pm--------- 33.1- 8.6- 5.9-
2024-02-25 02:30 pm--------- 33.3-----
2024-02-25 02:24 pm--------- 33.3-----
2024-02-25 02:18 pm--------- 33.1- 5.7- 5.9-
2024-02-25 02:12 pm--------- 33.3- 6.1- 5.9-
2024-02-25 02:06 pm--------- 32.5- 4.5- 5.9-
2024-02-25 02:00 pm--------- 32.5- 5.2- 5.9-
2024-02-25 01:54 pm--------- 32.5- 4.6- 5.9-
2024-02-25 01:48 pm--------- 32.4- 4.3- 5.9-
2024-02-25 01:42 pm--------- 32.0- 4.1- 5.9-
2024-02-25 01:36 pm--------- 31.8- 3.6- 5.9-
2024-02-25 01:18 pm--------- 31.3- 3.7- 5.9-
2024-02-25 01:12 pm--------- 30.4- 1.4- 5.9-
2024-02-25 01:06 pm--------- 30.2- 3.6- 5.9-
2024-02-25 01:00 pm--------- 30.0--- 5.9-
2024-02-25 12:54 pm--------- 30.0--- 5.9-
2024-02-25 12:48 pm--------- 29.8- 6.3- 5.9-
2024-02-25 12:42 pm--------- 29.1- 6.1- 5.9-
2024-02-25 12:36 pm--------- 28.9- 6.3- 5.9-
2024-02-25 12:30 pm--------- 28.6- 4.6- 5.9-
2024-02-25 12:24 pm--------- 28.6- 6.1- 5.9-
2024-02-25 12:18 pm--------- 28.6- 6.4- 5.9-
2024-02-25 12:12 pm--------- 28.4- 7.0- 5.9-
2024-02-25 12:06 pm--------- 28.6- 6.3- 5.9-
2024-02-25 12:00 pm--------- 28.4- 3.6- 5.9-
2024-02-25 11:54 am--------- 28.0- 2.7- 5.9-
2024-02-25 11:48 am--------- 28.4- 3.7- 5.9-
2024-02-25 11:42 am--------- 28.2- 4.3- 5.9-
2024-02-25 11:36 am--------- 28.2- 5.2- 5.9-
2024-02-25 11:30 am--------- 27.5- 3.4- 5.9-
2024-02-25 11:24 am--------- 27.5- 5.2- 5.9-
2024-02-25 10:48 am--------- 25.7- 3.2- 5.9-
2024-02-25 10:42 am--------- 25.3- 3.0- 5.9-
2024-02-25 10:36 am--------- 25.3- 3.6- 5.9-
2024-02-25 10:30 am--------- 25.0- 3.0- 5.9-
2024-02-25 10:24 am--------- 24.8- 3.2- 5.9-
2024-02-25 09:48 am--------- 24.4- 1.0- 5.9-
2024-02-25 09:42 am--------- 23.4- 0.7- 5.9-
2024-02-25 09:36 am--------- 23.4- 1.9- 5.9-
2024-02-25 09:30 am--------- 23.2- 2.8- 5.9-
2024-02-25 09:24 am--------- 23.5- 3.0- 5.9-
2024-02-25 08:48 am--------- 22.1- 1.8- 5.9-
2024-02-25 08:42 am--------- 21.9- 1.6- 5.9-
2024-02-25 08:36 am--------- 21.7- 2.7- 5.9-
2024-02-25 08:30 am--------- 21.4- 2.7- 5.9-
2024-02-25 08:24 am--------- 21.2- 2.7- 5.9-
2024-02-25 08:18 am--------- 21.0- 3.2- 5.9-
2024-02-25 08:12 am--------- 21.0- 3.0- 5.9-
2024-02-25 08:06 am--------- 20.7- 3.2- 5.9-
2024-02-25 07:48 am--------- 20.5- 4.1---
2024-02-25 07:42 am--------- 19.9- 3.0---
2024-02-25 07:36 am--------- 19.9- 3.4---
2024-02-25 07:30 am--------- 20.1- 4.8- 5.9-
2024-02-25 07:24 am--------- 19.6- 3.9- 5.9-
2024-02-25 07:18 am--------- 19.4- 3.7- 5.9-
2024-02-25 07:12 am--------- 19.2- 3.4- 5.9-
2024-02-25 07:06 am--------- 19.6- 4.6- 5.9-
2024-02-25 07:00 am--------- 19.2- 5.0- 5.9-
2024-02-25 06:54 am--------- 19.4- 4.3- 5.9-